createdAt,value
2023-03-15T00:00:15.477Z,2.37
2023-03-15T00:02:43.940Z,2.10
2023-03-15T00:05:15.149Z,2.37
2023-03-15T00:07:43.621Z,2.27
2023-03-15T00:10:12.694Z,2.00
2023-03-15T00:12:43.181Z,2.30
2023-03-15T00:15:15.175Z,2.03
2023-03-15T00:17:45.016Z,2.20
2023-03-15T00:20:15.193Z,2.27
2023-03-15T00:22:43.993Z,2.00
2023-03-15T00:25:13.042Z,2.20
2023-03-15T00:27:41.523Z,2.27
2023-03-15T00:30:10.879Z,2.40
2023-03-15T00:32:39.604Z,2.10
2023-03-15T00:35:08.404Z,1.83
2023-03-15T00:37:37.621Z,2.10
2023-03-15T00:40:07.541Z,2.30
2023-03-15T00:42:35.953Z,2.40
2023-03-15T00:45:05.024Z,2.20
2023-03-15T00:47:33.700Z,2.20
2023-03-15T00:50:02.346Z,2.33
2023-03-15T00:52:37.090Z,2.37
2023-03-15T00:55:06.943Z,2.50
2023-03-15T00:57:35.610Z,2.20
2023-03-15T01:00:08.770Z,2.50
2023-03-15T01:02:38.072Z,2.67
2023-03-15T01:05:09.100Z,2.70
2023-03-15T01:07:37.987Z,2.40
2023-03-15T01:10:07.979Z,3.00
2023-03-15T01:12:37.000Z,2.50
2023-03-15T01:15:12.209Z,2.10
2023-03-15T01:17:40.879Z,2.40
2023-03-15T01:20:10.617Z,2.37
2023-03-15T01:22:39.185Z,2.23
2023-03-15T01:25:09.431Z,2.20
2023-03-15T01:27:38.153Z,2.20
2023-03-15T01:30:07.388Z,2.17
2023-03-15T01:32:36.023Z,2.60
2023-03-15T01:35:04.588Z,2.17
2023-03-15T01:37:34.606Z,2.70
2023-03-15T01:40:06.336Z,1.70
2023-03-15T01:42:34.815Z,2.03
2023-03-15T01:45:03.261Z,2.10
2023-03-15T01:47:33.319Z,2.10
2023-03-15T01:50:11.964Z,1.97
2023-03-15T01:52:43.648Z,2.37
2023-03-15T01:55:18.804Z,2.03
2023-03-15T01:57:57.326Z,1.93
2023-03-15T02:00:26.007Z,2.10
2023-03-15T02:03:02.201Z,2.23
2023-03-15T02:05:35.529Z,1.77
2023-03-15T02:08:04.585Z,2.47
2023-03-15T02:10:47.072Z,2.13
2023-03-15T02:13:23.000Z,1.90
2023-03-15T02:15:53.551Z,1.47
2023-03-15T02:18:22.721Z,2.13
2023-03-15T02:21:11.974Z,2.00
2023-03-15T02:23:40.746Z,1.77
2023-03-15T02:26:41.689Z,2.27
2023-03-15T02:29:10.466Z,1.57
2023-03-15T02:31:39.192Z,1.60
2023-03-15T02:34:08.511Z,1.80
2023-03-15T02:36:38.159Z,1.80
2023-03-15T02:39:18.646Z,2.00
2023-03-15T02:41:53.803Z,1.97
2023-03-15T02:44:31.454Z,1.83
2023-03-15T02:47:07.037Z,2.03
2023-03-15T02:49:41.274Z,2.30
2023-03-15T02:52:10.373Z,2.00
2023-03-15T02:54:39.404Z,2.03
2023-03-15T02:57:08.261Z,2.30
2023-03-15T02:59:36.697Z,2.00
2023-03-15T03:02:06.098Z,2.33
2023-03-15T03:04:34.657Z,2.27
2023-03-15T03:07:03.182Z,3.00
2023-03-15T03:09:31.762Z,2.20
2023-03-15T03:12:00.309Z,3.00
2023-03-15T03:14:28.796Z,2.40
2023-03-15T03:16:57.299Z,2.80
2023-03-15T03:19:26.166Z,2.47
2023-03-15T03:21:55.395Z,3.10
2023-03-15T03:24:25.839Z,2.90
2023-03-15T03:26:57.782Z,3.00
2023-03-15T03:29:27.239Z,3.00
2023-03-15T03:31:55.795Z,2.50
2023-03-15T03:34:24.667Z,2.10
2023-03-15T03:36:53.358Z,2.40
2023-03-15T03:39:22.012Z,2.23
2023-03-15T03:41:50.563Z,2.13
2023-03-15T03:44:19.292Z,1.83
2023-03-15T03:46:48.241Z,2.40
2023-03-15T03:49:16.752Z,2.53
2023-03-15T03:51:45.410Z,2.07
2023-03-15T03:54:15.368Z,2.07
2023-03-15T03:56:45.767Z,2.07
2023-03-15T03:59:14.236Z,2.20
2023-03-15T04:01:43.310Z,1.80
2023-03-15T04:04:14.208Z,1.93
2023-03-15T04:06:45.873Z,1.60
2023-03-15T04:09:15.725Z,2.27
2023-03-15T04:11:44.866Z,2.00
2023-03-15T04:14:16.058Z,2.07
2023-03-15T04:16:44.552Z,2.23
2023-03-15T04:19:13.964Z,2.37
2023-03-15T04:21:47.514Z,1.97
2023-03-15T04:24:16.228Z,2.10
2023-03-15T04:26:44.672Z,2.37
2023-03-15T04:29:14.652Z,1.80
2023-03-15T04:31:43.553Z,2.20
2023-03-15T04:34:12.041Z,1.80
2023-03-15T04:36:42.675Z,2.23
2023-03-15T04:39:12.652Z,1.90
2023-03-15T04:41:41.227Z,1.63
2023-03-15T04:44:09.669Z,1.73
2023-03-15T04:46:38.170Z,1.77
2023-03-15T04:49:06.649Z,1.80
2023-03-15T04:51:35.514Z,1.80
2023-03-15T04:54:04.086Z,2.07
2023-03-15T04:56:32.949Z,2.20
2023-03-15T04:59:01.434Z,2.23
2023-03-15T05:01:32.488Z,1.67
2023-03-15T05:04:01.402Z,1.60
2023-03-15T05:06:30.251Z,2.13
2023-03-15T05:08:58.805Z,2.17
2023-03-15T05:11:27.518Z,2.07
2023-03-15T05:13:55.998Z,1.80
2023-03-15T05:16:24.612Z,2.80
2023-03-15T05:18:54.012Z,1.90
2023-03-15T05:21:22.509Z,2.03
2023-03-15T05:23:51.522Z,1.93
2023-03-15T05:26:20.009Z,2.37
2023-03-15T05:28:48.534Z,1.80
2023-03-15T05:31:17.099Z,2.00
2023-03-15T05:33:47.021Z,1.93
2023-03-15T05:36:15.887Z,1.93
2023-03-15T05:38:45.667Z,1.90
2023-03-15T05:41:18.397Z,1.90
2023-03-15T05:43:47.631Z,2.27
2023-03-15T05:46:16.093Z,2.17
2023-03-15T05:48:44.661Z,1.87
2023-03-15T05:51:13.331Z,1.90
2023-03-15T05:53:41.906Z,2.10
2023-03-15T05:56:10.573Z,1.80
2023-03-15T05:58:39.223Z,1.93
2023-03-15T06:01:07.643Z,1.70
2023-03-15T06:03:36.311Z,2.70
2023-03-15T06:06:05.126Z,2.73
2023-03-15T06:08:33.658Z,2.57
2023-03-15T06:11:02.318Z,1.97
2023-03-15T06:13:38.703Z,2.63
2023-03-15T06:16:08.458Z,2.07
2023-03-15T06:18:36.978Z,2.07
2023-03-15T06:21:05.665Z,2.00
2023-03-15T06:23:34.087Z,1.63
2023-03-15T06:26:02.603Z,1.83
2023-03-15T06:28:31.126Z,1.67
2023-03-15T06:30:59.648Z,2.07
2023-03-15T06:33:28.109Z,1.80
2023-03-15T06:35:56.557Z,2.07
2023-03-15T06:38:25.039Z,1.40
2023-03-15T06:40:53.496Z,2.10
2023-03-15T06:43:22.549Z,1.97
2023-03-15T06:45:51.133Z,2.30
2023-03-15T06:48:19.614Z,2.23
2023-03-15T06:50:48.227Z,2.00
2023-03-15T06:53:17.834Z,2.60
2023-03-15T06:55:46.763Z,2.03
2023-03-15T06:58:16.187Z,1.90
2023-03-15T07:00:44.905Z,1.90
2023-03-15T07:03:13.457Z,2.43
2023-03-15T07:05:41.910Z,1.97
2023-03-15T07:08:10.383Z,2.10
2023-03-15T07:10:38.876Z,2.20
2023-03-15T07:13:07.411Z,2.30
2023-03-15T07:15:38.346Z,2.13
2023-03-15T07:18:07.129Z,2.57
2023-03-15T07:20:37.704Z,2.40
2023-03-15T07:23:06.418Z,2.30
2023-03-15T07:25:48.275Z,2.10
2023-03-15T07:28:23.402Z,2.80
2023-03-15T07:30:56.389Z,1.93
2023-03-15T07:33:25.996Z,2.33
2023-03-15T07:35:55.142Z,2.33
2023-03-15T07:38:29.532Z,2.17
2023-03-15T07:40:58.717Z,2.50
2023-03-15T07:43:27.289Z,2.37
2023-03-15T07:45:55.993Z,2.70
2023-03-15T07:48:24.530Z,2.53
2023-03-15T07:50:53.082Z,2.97
2023-03-15T07:53:21.573Z,2.70
2023-03-15T07:55:50.349Z,2.70
2023-03-15T07:58:20.424Z,2.73
2023-03-15T08:00:49.021Z,2.83
2023-03-15T08:03:17.634Z,3.03
2023-03-15T08:05:46.116Z,2.57
2023-03-15T08:08:14.633Z,2.97
2023-03-15T08:10:43.379Z,2.60
2023-03-15T08:13:11.972Z,2.70
2023-03-15T08:15:40.918Z,2.60
2023-03-15T08:18:09.547Z,2.53
2023-03-15T08:20:37.933Z,3.43
2023-03-15T08:23:06.391Z,3.00
2023-03-15T08:25:35.041Z,2.60
2023-03-15T08:28:03.470Z,3.10
2023-03-15T08:30:31.981Z,3.00
2023-03-15T08:33:00.458Z,2.83
2023-03-15T08:35:29.057Z,2.90
2023-03-15T08:37:57.538Z,2.90
2023-03-15T08:40:26.182Z,3.10
2023-03-15T08:42:55.172Z,3.00
2023-03-15T08:45:28.221Z,2.80
2023-03-15T08:48:00.650Z,2.83
2023-03-15T08:50:31.649Z,2.63
2023-03-15T08:53:00.363Z,2.70
2023-03-15T08:55:28.821Z,3.10
2023-03-15T08:57:57.393Z,2.87
2023-03-15T09:00:27.069Z,3.07
2023-03-15T09:02:56.070Z,2.90
2023-03-15T09:05:26.180Z,2.90
2023-03-15T09:07:55.314Z,2.83
2023-03-15T09:10:23.940Z,3.07
2023-03-15T09:12:54.204Z,3.50
2023-03-15T09:15:22.920Z,3.60
2023-03-15T09:17:52.342Z,3.37
2023-03-15T09:20:22.894Z,3.20
2023-03-15T09:22:55.161Z,3.00
2023-03-15T09:25:24.151Z,2.90
2023-03-15T09:27:53.399Z,3.67
2023-03-15T09:30:22.025Z,2.53
2023-03-15T09:32:51.449Z,2.90
2023-03-15T09:35:21.583Z,2.40
2023-03-15T09:37:51.367Z,2.40
2023-03-15T09:40:30.235Z,2.33
2023-03-15T09:43:05.831Z,2.60
2023-03-15T09:46:17.623Z,3.00
2023-03-15T09:49:15.921Z,2.60
2023-03-15T09:51:53.177Z,2.60
2023-03-15T09:55:04.809Z,2.50
2023-03-15T09:57:48.809Z,1.90
2023-03-15T10:00:23.900Z,2.13
2023-03-15T10:03:07.126Z,2.60
2023-03-15T10:05:52.848Z,2.40
2023-03-15T10:08:24.383Z,2.30
2023-03-15T10:10:54.256Z,2.60
2023-03-15T10:13:42.448Z,2.40
2023-03-15T10:16:41.782Z,2.07
2023-03-15T10:19:28.116Z,2.03
2023-03-15T10:22:14.023Z,1.90
2023-03-15T10:25:11.906Z,2.30
2023-03-15T10:27:47.336Z,1.93
2023-03-15T10:30:24.932Z,2.20
2023-03-15T10:33:18.372Z,2.03
2023-03-15T10:35:46.670Z,2.27
2023-03-15T10:38:20.970Z,2.67
2023-03-15T10:41:00.910Z,2.57
2023-03-15T10:43:32.425Z,2.70
2023-03-15T10:46:15.096Z,2.30
2023-03-15T10:49:15.764Z,2.40
2023-03-15T10:51:49.297Z,2.50
2023-03-15T10:54:24.184Z,2.13
2023-03-15T10:57:03.951Z,2.10
2023-03-15T10:59:36.821Z,1.90
2023-03-15T11:02:14.346Z,1.80
2023-03-15T11:05:19.267Z,1.63
2023-03-15T11:08:00.862Z,1.90
2023-03-15T11:10:35.253Z,2.07
2023-03-15T11:13:22.842Z,1.90
2023-03-15T11:16:03.932Z,2.23
2023-03-15T11:18:57.782Z,2.60
2023-03-15T11:21:33.611Z,2.10
2023-03-15T11:24:04.443Z,2.43
2023-03-15T11:26:38.724Z,1.90
2023-03-15T11:29:27.607Z,1.73
2023-03-15T11:31:56.482Z,1.60
2023-03-15T11:34:44.804Z,1.30
2023-03-15T11:37:22.984Z,1.30
2023-03-15T11:40:23.342Z,1.37
2023-03-15T11:43:12.607Z,1.53
2023-03-15T11:45:56.702Z,1.33
2023-03-15T11:48:51.084Z,1.17
2023-03-15T11:51:19.405Z,1.13
2023-03-15T11:54:08.581Z,0.90
2023-03-15T11:56:45.828Z,1.10
2023-03-15T11:59:39.374Z,1.10
2023-03-15T12:02:27.732Z,1.10
2023-03-15T12:05:01.785Z,1.37
2023-03-15T12:08:20.488Z,1.00
2023-03-15T12:10:50.765Z,1.10
2023-03-15T12:13:25.042Z,1.27
2023-03-15T12:15:54.005Z,0.83
2023-03-15T12:18:33.713Z,1.00
2023-03-15T12:21:36.497Z,0.90
2023-03-15T12:24:08.754Z,1.00
2023-03-15T12:26:47.351Z,2.03
2023-03-15T12:29:32.472Z,1.00
2023-03-15T12:32:03.501Z,1.10
2023-03-15T12:34:32.220Z,0.90
2023-03-15T12:37:10.071Z,1.00
2023-03-15T12:39:43.333Z,1.13
2023-03-15T12:42:32.400Z,1.00
2023-03-15T12:45:37.356Z,0.90
2023-03-15T12:48:06.613Z,0.80
2023-03-15T12:50:47.980Z,1.20
2023-03-15T12:53:25.069Z,0.93
2023-03-15T12:56:02.745Z,1.00
2023-03-15T12:58:38.475Z,0.90
2023-03-15T13:01:08.990Z,1.33
2023-03-15T13:03:37.727Z,1.00
2023-03-15T13:06:31.333Z,0.73
2023-03-15T13:09:02.533Z,1.10
2023-03-15T13:11:54.322Z,1.10
2023-03-15T13:14:27.121Z,1.10
2023-03-15T13:17:36.283Z,1.20
2023-03-15T13:20:13.853Z,1.17
2023-03-15T13:23:15.404Z,1.33
2023-03-15T13:26:14.035Z,1.37
2023-03-15T13:28:55.558Z,1.33
2023-03-15T13:31:31.489Z,1.63
2023-03-15T13:34:17.178Z,1.40
2023-03-15T13:36:55.296Z,1.07
2023-03-15T13:39:33.290Z,1.50
2023-03-15T13:42:20.090Z,1.37
2023-03-15T13:44:48.101Z,1.73
2023-03-15T13:47:22.202Z,1.70
2023-03-15T13:49:53.988Z,1.40
2023-03-15T13:52:22.423Z,1.50
2023-03-15T13:54:53.715Z,1.40
2023-03-15T13:57:23.561Z,1.70
2023-03-15T14:00:12.205Z,1.47
2023-03-15T14:03:06.709Z,1.40
2023-03-15T14:05:45.100Z,1.27
2023-03-15T14:08:22.805Z,1.20
2023-03-15T14:11:10.202Z,1.40
2023-03-15T14:13:50.334Z,1.27
2023-03-15T14:17:03.148Z,1.07
2023-03-15T14:19:36.856Z,1.40
2023-03-15T14:22:16.630Z,1.60
2023-03-15T14:24:49.248Z,1.17
2023-03-15T14:27:35.578Z,1.47
2023-03-15T14:30:04.738Z,1.40
2023-03-15T14:32:39.106Z,1.03
2023-03-15T14:35:09.111Z,1.63
2023-03-15T14:37:39.969Z,1.20
2023-03-15T14:40:29.842Z,1.97
2023-03-15T14:42:58.294Z,1.23
2023-03-15T14:45:27.519Z,1.20
2023-03-15T14:48:12.347Z,1.70
2023-03-15T14:50:43.919Z,1.60
2023-03-15T14:53:18.276Z,1.53
2023-03-15T14:55:46.469Z,1.67
2023-03-15T14:58:17.641Z,1.57
2023-03-15T15:00:49.800Z,1.47
2023-03-15T15:03:38.250Z,1.60
2023-03-15T15:06:10.666Z,1.60
2023-03-15T15:08:41.855Z,1.57
2023-03-15T15:11:10.603Z,1.63
2023-03-15T15:13:40.218Z,1.87
2023-03-15T15:16:09.186Z,1.50
2023-03-15T15:18:38.663Z,1.70
2023-03-15T15:21:27.320Z,1.70
2023-03-15T15:23:58.839Z,2.83
2023-03-15T15:26:30.405Z,2.37
2023-03-15T15:29:00.681Z,1.70
2023-03-15T15:31:33.789Z,1.80
2023-03-15T15:34:02.945Z,2.13
2023-03-15T15:36:43.824Z,1.63
2023-03-15T15:39:29.554Z,1.80
2023-03-15T15:41:58.124Z,1.60
2023-03-15T15:44:26.837Z,1.60
2023-03-15T15:46:55.316Z,1.70
2023-03-15T15:49:23.735Z,1.70
2023-03-15T15:51:52.153Z,1.87
2023-03-15T15:54:26.276Z,1.77
2023-03-15T15:56:58.334Z,1.43
2023-03-15T15:59:27.245Z,1.93
2023-03-15T16:02:01.715Z,1.80
2023-03-15T16:04:31.232Z,1.87
2023-03-15T16:07:04.478Z,1.23
2023-03-15T16:09:35.964Z,1.70
2023-03-15T16:12:04.808Z,0.90
2023-03-15T16:14:32.812Z,1.40
2023-03-15T16:17:01.379Z,1.30
2023-03-15T16:19:29.793Z,1.27
2023-03-15T16:21:57.879Z,1.63
2023-03-15T16:24:31.237Z,1.87
2023-03-15T16:27:06.806Z,1.67
2023-03-15T16:29:47.788Z,2.33
2023-03-15T16:32:37.181Z,1.63
2023-03-15T16:35:15.440Z,1.30
2023-03-15T16:37:45.052Z,2.07
2023-03-15T16:40:35.188Z,1.57
2023-03-15T16:43:06.260Z,1.47
2023-03-15T16:45:34.730Z,1.57
2023-03-15T16:48:03.108Z,1.73
2023-03-15T16:50:31.968Z,1.60
2023-03-15T16:53:03.916Z,1.40
2023-03-15T16:55:33.914Z,1.53
2023-03-15T16:58:11.324Z,2.33
2023-03-15T17:00:39.800Z,1.70
2023-03-15T17:03:08.305Z,1.60
2023-03-15T17:05:36.340Z,2.27
2023-03-15T17:08:05.232Z,2.00
2023-03-15T17:10:34.134Z,1.57
2023-03-15T17:13:03.677Z,1.60
2023-03-15T17:15:32.335Z,2.00
2023-03-15T17:18:03.245Z,1.90
2023-03-15T17:20:31.871Z,1.43
2023-03-15T17:23:05.473Z,1.47
2023-03-15T17:25:35.055Z,1.67
2023-03-15T17:28:03.679Z,1.60
2023-03-15T17:30:38.954Z,1.50
2023-03-15T17:33:07.731Z,1.73
2023-03-15T17:35:41.987Z,1.60
2023-03-15T17:38:24.110Z,1.50
2023-03-15T17:40:53.504Z,1.77
2023-03-15T18:00:23.288Z,1.60
2023-03-15T18:18:06.722Z,2.10
2023-03-15T18:20:35.298Z,2.10
2023-03-15T18:23:05.037Z,2.20
2023-03-15T18:25:35.878Z,2.30
2023-03-15T18:28:04.689Z,1.80
2023-03-15T18:30:33.740Z,2.67
2023-03-15T18:33:03.798Z,2.77
2023-03-15T18:35:35.621Z,3.50
2023-03-15T18:38:04.477Z,3.37
2023-03-15T18:40:34.830Z,3.00
2023-03-15T18:43:05.394Z,2.23
2023-03-15T18:45:36.752Z,2.73
2023-03-15T18:48:05.781Z,2.23
2023-03-15T18:50:34.796Z,1.80
2023-03-15T18:53:06.130Z,1.63
2023-03-15T18:55:35.454Z,2.00
2023-03-15T18:58:04.942Z,1.77
2023-03-15T19:00:36.156Z,1.83
2023-03-15T19:03:07.087Z,1.77
2023-03-15T19:05:38.438Z,2.63
2023-03-15T19:08:07.445Z,1.67
2023-03-15T19:10:36.011Z,1.97
2023-03-15T19:13:04.932Z,1.83
2023-03-15T19:15:33.444Z,2.23
2023-03-15T19:18:02.120Z,2.23
2023-03-15T19:20:30.753Z,2.53
2023-03-15T19:22:59.260Z,2.67
2023-03-15T19:25:27.777Z,3.03
2023-03-15T19:27:57.440Z,2.10
2023-03-15T19:30:26.521Z,2.27
2023-03-15T19:32:55.657Z,2.40
2023-03-15T19:35:24.178Z,2.10
2023-03-15T19:37:52.668Z,2.70
2023-03-15T19:40:21.506Z,2.23
2023-03-15T19:42:50.297Z,2.60
2023-03-15T19:45:19.651Z,2.73
2023-03-15T19:47:48.237Z,2.67
2023-03-15T19:50:17.828Z,2.50
2023-03-15T19:52:49.162Z,2.80
2023-03-15T19:55:20.944Z,3.20
2023-03-15T19:57:49.681Z,3.50
2023-03-15T20:00:20.047Z,3.80
2023-03-15T20:02:48.884Z,3.20
2023-03-15T20:05:21.028Z,2.60
2023-03-15T20:07:51.226Z,2.93
2023-03-15T20:10:20.915Z,3.23
2023-03-15T20:12:49.874Z,3.50
2023-03-15T20:15:20.995Z,3.00
2023-03-15T20:17:49.617Z,3.50
2023-03-15T20:20:19.427Z,3.10
2023-03-15T20:22:48.340Z,3.53
2023-03-15T20:25:21.509Z,3.20
2023-03-15T20:27:50.260Z,3.97
2023-03-15T20:30:19.904Z,2.87
2023-03-15T20:32:48.841Z,2.93
2023-03-15T20:35:17.350Z,3.33
2023-03-15T20:37:45.822Z,3.40
2023-03-15T20:40:17.363Z,3.33
2023-03-15T20:42:46.294Z,3.00
2023-03-15T20:45:15.147Z,3.33
2023-03-15T20:47:43.837Z,4.13
2023-03-15T20:50:13.669Z,3.87
2023-03-15T20:52:42.704Z,3.50
2023-03-15T20:55:13.716Z,3.53
2023-03-15T20:57:43.050Z,3.20
2023-03-15T21:00:18.374Z,3.10
2023-03-15T21:02:48.309Z,3.87
2023-03-15T21:05:17.856Z,3.53
2023-03-15T21:07:46.979Z,3.50
2023-03-15T21:10:15.593Z,3.80
2023-03-15T21:12:45.245Z,3.67
2023-03-15T21:15:17.619Z,3.03
2023-03-15T21:17:49.792Z,3.57
2023-03-15T21:20:19.323Z,3.00
2023-03-15T21:22:47.876Z,3.00
2023-03-15T21:25:16.984Z,3.40
2023-03-15T21:27:46.305Z,3.50
2023-03-15T21:30:15.453Z,3.20
2023-03-15T21:32:44.774Z,3.93
2023-03-15T21:35:13.615Z,3.40
2023-03-15T21:37:42.302Z,3.40
2023-03-15T21:40:13.405Z,3.83
2023-03-15T21:42:42.721Z,4.43
2023-03-15T21:45:12.381Z,3.60
2023-03-15T21:47:41.004Z,3.40
2023-03-15T21:50:11.800Z,3.70
2023-03-15T21:52:40.522Z,4.03
2023-03-15T21:55:10.192Z,3.93
2023-03-15T21:57:38.730Z,3.50
2023-03-15T22:00:11.881Z,3.67
2023-03-15T22:02:40.915Z,4.30
2023-03-15T22:05:11.159Z,3.83
2023-03-15T22:07:41.116Z,4.27
2023-03-15T22:10:10.876Z,3.90
2023-03-15T22:12:39.894Z,4.17
2023-03-15T22:15:08.857Z,4.07
2023-03-15T22:17:37.926Z,4.00
2023-03-15T22:20:09.339Z,3.57
2023-03-15T22:22:38.182Z,4.43
2023-03-15T22:25:06.680Z,3.80
2023-03-15T22:27:35.387Z,3.87
2023-03-15T22:30:04.652Z,4.87
2023-03-15T22:32:33.378Z,4.43
2023-03-15T22:35:02.154Z,4.07
2023-03-15T22:37:30.631Z,4.20
2023-03-15T22:39:59.154Z,4.20
2023-03-15T22:42:27.730Z,4.17
2023-03-15T22:44:56.239Z,4.37
2023-03-15T22:47:24.869Z,4.50
2023-03-15T22:49:54.707Z,4.40
2023-03-15T22:52:23.458Z,4.03
2023-03-15T22:54:52.134Z,4.40
2023-03-15T22:57:20.803Z,4.13
2023-03-15T22:59:49.319Z,4.60
2023-03-15T23:02:17.752Z,4.77
2023-03-15T23:04:46.470Z,4.13
2023-03-15T23:07:15.330Z,3.67
2023-03-15T23:09:44.155Z,4.20
2023-03-15T23:12:15.341Z,4.40
2023-03-15T23:14:45.819Z,4.27
2023-03-15T23:17:14.621Z,3.67
2023-03-15T23:19:43.203Z,4.10
2023-03-15T23:22:11.917Z,4.47
2023-03-15T23:24:40.422Z,4.30
2023-03-15T23:27:08.928Z,3.93
2023-03-15T23:29:52.864Z,4.27
2023-03-15T23:32:22.215Z,4.80
2023-03-15T23:34:51.125Z,3.80
2023-03-15T23:37:19.769Z,4.83
2023-03-15T23:39:48.198Z,4.03
2023-03-15T23:42:17.086Z,4.30
2023-03-15T23:44:45.592Z,4.07
2023-03-15T23:47:14.140Z,4.00
2023-03-15T23:49:42.626Z,4.30
2023-03-15T23:52:11.062Z,4.20
2023-03-15T23:54:41.386Z,4.17
2023-03-15T23:57:12.461Z,3.93
2023-03-15T23:59:42.533Z,4.00
